Terminal Aerodrome Forecast
Issued by NWS Huntsville, AL

Home | Current Version | Previous Version | Text Only | Print | Product List | Glossary On
Versions: 1 2 3 4 5 6 7 8 9 10 11 12 13 14 15 16 17 18 19 20 21 22 23 24 25 26 27 28 29 30 31 32 33 34 35 36 37 38 39 40
000
FTUS44 KHUN 051728
TAFHSV
TAF
KHSV 051728Z 0518/0618 36012G20KT 5SM BR OVC015
      TEMPO 0518/0520 3SM -PLSN
     FM052000 36012G18KT P6SM BKN030
     FM060300 36010KT P6SM BKN050
     FM060900 01006KT P6SM SCT050=

USA.gov is the U.S. government's official web portal to all federal, state and local government web resources and services.